sensor_id;sensor_type;location;lat;lon;timestamp;P1;durP1;ratioP1;P2;durP2;ratioP2
82632;SDS011;72302;51.444;3.582;2024-02-26T00:00:58;3.95;;;2.00;;
82632;SDS011;72302;51.444;3.582;2024-02-26T00:03:23;3.37;;;1.43;;
82632;SDS011;72302;51.444;3.582;2024-02-26T00:05:48;2.45;;;1.02;;
82632;SDS011;72302;51.444;3.582;2024-02-26T00:08:13;2.33;;;0.77;;
82632;SDS011;72302;51.444;3.582;2024-02-26T00:10:38;1.13;;;0.40;;
82632;SDS011;72302;51.444;3.582;2024-02-26T00:13:03;2.60;;;1.27;;
82632;SDS011;72302;51.444;3.582;2024-02-26T00:15:29;2.90;;;1.27;;
82632;SDS011;72302;51.444;3.582;2024-02-26T00:17:54;2.30;;;0.80;;
82632;SDS011;72302;51.444;3.582;2024-02-26T00:20:20;1.23;;;0.63;;
82632;SDS011;72302;51.444;3.582;2024-02-26T00:22:45;3.55;;;1.00;;
82632;SDS011;72302;51.444;3.582;2024-02-26T00:25:11;1.00;;;0.60;;
82632;SDS011;72302;51.444;3.582;2024-02-26T00:27:37;3.47;;;0.95;;
82632;SDS011;72302;51.444;3.582;2024-02-26T00:30:05;0.93;;;0.35;;
82632;SDS011;72302;51.444;3.582;2024-02-26T00:32:31;4.55;;;0.90;;
82632;SDS011;72302;51.444;3.582;2024-02-26T00:34:56;0.83;;;0.53;;
82632;SDS011;72302;51.444;3.582;2024-02-26T00:37:21;3.37;;;1.53;;
82632;SDS011;72302;51.444;3.582;2024-02-26T00:39:46;3.53;;;1.30;;
82632;SDS011;72302;51.444;3.582;2024-02-26T00:42:12;3.53;;;0.90;;
82632;SDS011;72302;51.444;3.582;2024-02-26T00:44:37;2.43;;;1.13;;
82632;SDS011;72302;51.444;3.582;2024-02-26T00:47:02;1.50;;;0.77;;
82632;SDS011;72302;51.444;3.582;2024-02-26T00:49:28;2.95;;;1.20;;
82632;SDS011;72302;51.444;3.582;2024-02-26T00:51:54;4.07;;;1.20;;
82632;SDS011;72302;51.444;3.582;2024-02-26T00:54:19;4.57;;;1.38;;
82632;SDS011;72302;51.444;3.582;2024-02-26T00:56:44;2.03;;;0.70;;
82632;SDS011;72302;51.444;3.582;2024-02-26T00:59:09;1.63;;;0.80;;
82632;SDS011;72302;51.444;3.582;2024-02-26T01:01:35;3.03;;;1.47;;
82632;SDS011;72302;51.444;3.582;2024-02-26T01:04:00;1.97;;;0.93;;
82632;SDS011;72302;51.444;3.582;2024-02-26T01:06:25;3.63;;;1.60;;
82632;SDS011;72302;51.444;3.582;2024-02-26T01:08:50;1.60;;;0.70;;
82632;SDS011;72302;51.444;3.582;2024-02-26T01:11:15;2.08;;;0.98;;
82632;SDS011;72302;51.444;3.582;2024-02-26T01:13:41;3.00;;;1.37;;
82632;SDS011;72302;51.444;3.582;2024-02-26T01:16:06;3.63;;;1.92;;
82632;SDS011;72302;51.444;3.582;2024-02-26T01:18:31;4.67;;;2.03;;
82632;SDS011;72302;51.444;3.582;2024-02-26T01:20:57;2.35;;;0.57;;
82632;SDS011;72302;51.444;3.582;2024-02-26T01:23:22;1.88;;;0.98;;
82632;SDS011;72302;51.444;3.582;2024-02-26T01:25:47;2.47;;;1.13;;
82632;SDS011;72302;51.444;3.582;2024-02-26T01:28:13;2.85;;;1.77;;
82632;SDS011;72302;51.444;3.582;2024-02-26T01:30:38;1.30;;;0.70;;
82632;SDS011;72302;51.444;3.582;2024-02-26T01:33:04;2.37;;;1.50;;
82632;SDS011;72302;51.444;3.582;2024-02-26T01:35:29;4.90;;;1.90;;
82632;SDS011;72302;51.444;3.582;2024-02-26T01:37:55;2.65;;;1.48;;
82632;SDS011;72302;51.444;3.582;2024-02-26T01:40:20;4.63;;;2.42;;
82632;SDS011;72302;51.444;3.582;2024-02-26T01:42:45;3.30;;;1.43;;
82632;SDS011;72302;51.444;3.582;2024-02-26T01:45:12;3.63;;;1.50;;
82632;SDS011;72302;51.444;3.582;2024-02-26T01:47:40;4.35;;;2.45;;
82632;SDS011;72302;51.444;3.582;2024-02-26T01:50:06;2.13;;;0.90;;
82632;SDS011;72302;51.444;3.582;2024-02-26T01:52:31;2.33;;;1.38;;
82632;SDS011;72302;51.444;3.582;2024-02-26T01:54:57;3.30;;;1.80;;
82632;SDS011;72302;51.444;3.582;2024-02-26T01:57:22;3.13;;;1.23;;
82632;SDS011;72302;51.444;3.582;2024-02-26T01:59:48;2.88;;;1.50;;
82632;SDS011;72302;51.444;3.582;2024-02-26T02:02:13;2.33;;;1.38;;
82632;SDS011;72302;51.444;3.582;2024-02-26T02:04:39;3.60;;;1.95;;
82632;SDS011;72302;51.444;3.582;2024-02-26T02:07:05;3.25;;;1.85;;
82632;SDS011;72302;51.444;3.582;2024-02-26T02:09:31;3.95;;;1.65;;
82632;SDS011;72302;51.444;3.582;2024-02-26T02:11:56;2.55;;;1.33;;
82632;SDS011;72302;51.444;3.582;2024-02-26T02:14:22;2.33;;;1.50;;
82632;SDS011;72302;51.444;3.582;2024-02-26T02:16:47;2.85;;;1.35;;
82632;SDS011;72302;51.444;3.582;2024-02-26T02:19:13;2.60;;;1.43;;
82632;SDS011;72302;51.444;3.582;2024-02-26T02:21:38;3.15;;;1.00;;
82632;SDS011;72302;51.444;3.582;2024-02-26T02:24:03;2.77;;;1.50;;
82632;SDS011;72302;51.444;3.582;2024-02-26T02:26:28;3.03;;;1.80;;
82632;SDS011;72302;51.444;3.582;2024-02-26T02:28:54;3.93;;;1.90;;
82632;SDS011;72302;51.444;3.582;2024-02-26T02:31:19;2.13;;;1.00;;
82632;SDS011;72302;51.444;3.582;2024-02-26T02:33:44;4.00;;;1.90;;
82632;SDS011;72302;51.444;3.582;2024-02-26T02:36:09;3.95;;;1.52;;
82632;SDS011;72302;51.444;3.582;2024-02-26T02:38:38;1.88;;;1.02;;
82632;SDS011;72302;51.444;3.582;2024-02-26T02:41:13;2.55;;;1.33;;
82632;SDS011;72302;51.444;3.582;2024-02-26T02:43:39;2.88;;;1.63;;
82632;SDS011;72302;51.444;3.582;2024-02-26T02:46:04;3.63;;;1.57;;
82632;SDS011;72302;51.444;3.582;2024-02-26T02:48:29;3.33;;;1.60;;
82632;SDS011;72302;51.444;3.582;2024-02-26T02:50:55;2.13;;;0.87;;
82632;SDS011;72302;51.444;3.582;2024-02-26T02:53:20;2.55;;;0.70;;
82632;SDS011;72302;51.444;3.582;2024-02-26T02:55:45;2.80;;;1.13;;
82632;SDS011;72302;51.444;3.582;2024-02-26T02:58:11;3.53;;;1.10;;
82632;SDS011;72302;51.444;3.582;2024-02-26T03:00:36;3.00;;;1.23;;
82632;SDS011;72302;51.444;3.582;2024-02-26T03:03:01;4.60;;;1.87;;
82632;SDS011;72302;51.444;3.582;2024-02-26T03:05:29;3.17;;;0.87;;
82632;SDS011;72302;51.444;3.582;2024-02-26T03:07:54;2.28;;;1.27;;
82632;SDS011;72302;51.444;3.582;2024-02-26T03:10:19;3.20;;;1.60;;
82632;SDS011;72302;51.444;3.582;2024-02-26T03:12:45;6.65;;;1.88;;
82632;SDS011;72302;51.444;3.582;2024-02-26T03:15:10;3.67;;;1.08;;
82632;SDS011;72302;51.444;3.582;2024-02-26T03:17:36;3.78;;;1.83;;
82632;SDS011;72302;51.444;3.582;2024-02-26T03:20:02;2.80;;;1.07;;
82632;SDS011;72302;51.444;3.582;2024-02-26T03:22:30;2.90;;;1.35;;
82632;SDS011;72302;51.444;3.582;2024-02-26T03:24:55;4.53;;;1.43;;
82632;SDS011;72302;51.444;3.582;2024-02-26T03:27:20;2.40;;;1.47;;
82632;SDS011;72302;51.444;3.582;2024-02-26T03:29:45;2.93;;;1.63;;
82632;SDS011;72302;51.444;3.582;2024-02-26T03:32:10;2.20;;;1.20;;
82632;SDS011;72302;51.444;3.582;2024-02-26T03:34:36;3.60;;;1.50;;
82632;SDS011;72302;51.444;3.582;2024-02-26T03:37:01;2.30;;;0.88;;
82632;SDS011;72302;51.444;3.582;2024-02-26T03:39:26;4.70;;;1.67;;
82632;SDS011;72302;51.444;3.582;2024-02-26T03:41:51;1.93;;;1.17;;
82632;SDS011;72302;51.444;3.582;2024-02-26T03:44:16;3.03;;;1.20;;
82632;SDS011;72302;51.444;3.582;2024-02-26T03:46:42;2.83;;;1.48;;
82632;SDS011;72302;51.444;3.582;2024-02-26T03:49:10;4.60;;;1.38;;
82632;SDS011;72302;51.444;3.582;2024-02-26T03:51:36;4.23;;;1.13;;
82632;SDS011;72302;51.444;3.582;2024-02-26T03:54:02;2.33;;;1.33;;
82632;SDS011;72302;51.444;3.582;2024-02-26T03:56:27;3.75;;;1.42;;
82632;SDS011;72302;51.444;3.582;2024-02-26T03:58:53;1.90;;;1.10;;
82632;SDS011;72302;51.444;3.582;2024-02-26T04:01:18;4.47;;;1.65;;
82632;SDS011;72302;51.444;3.582;2024-02-26T04:03:43;3.60;;;1.97;;
82632;SDS011;72302;51.444;3.582;2024-02-26T04:06:09;4.17;;;1.90;;
82632;SDS011;72302;51.444;3.582;2024-02-26T04:08:35;5.18;;;2.20;;
82632;SDS011;72302;51.444;3.582;2024-02-26T04:11:01;3.93;;;1.60;;
82632;SDS011;72302;51.444;3.582;2024-02-26T04:13:26;2.83;;;1.25;;
82632;SDS011;72302;51.444;3.582;2024-02-26T04:15:51;3.50;;;1.50;;
82632;SDS011;72302;51.444;3.582;2024-02-26T04:18:16;4.43;;;1.90;;
82632;SDS011;72302;51.444;3.582;2024-02-26T04:20:41;2.13;;;1.43;;
82632;SDS011;72302;51.444;3.582;2024-02-26T04:23:07;3.78;;;1.80;;
82632;SDS011;72302;51.444;3.582;2024-02-26T04:25:32;4.22;;;2.20;;
82632;SDS011;72302;51.444;3.582;2024-02-26T04:27:57;3.72;;;2.38;;
82632;SDS011;72302;51.444;3.582;2024-02-26T04:30:23;3.67;;;1.97;;
82632;SDS011;72302;51.444;3.582;2024-02-26T04:32:48;4.25;;;1.77;;
82632;SDS011;72302;51.444;3.582;2024-02-26T04:35:14;2.17;;;1.20;;
82632;SDS011;72302;51.444;3.582;2024-02-26T04:37:39;3.43;;;1.67;;
82632;SDS011;72302;51.444;3.582;2024-02-26T04:40:05;3.75;;;1.83;;
82632;SDS011;72302;51.444;3.582;2024-02-26T04:42:30;3.15;;;1.85;;
82632;SDS011;72302;51.444;3.582;2024-02-26T04:44:56;4.75;;;1.85;;
82632;SDS011;72302;51.444;3.582;2024-02-26T04:47:21;3.00;;;1.77;;
82632;SDS011;72302;51.444;3.582;2024-02-26T04:49:47;3.28;;;1.15;;
82632;SDS011;72302;51.444;3.582;2024-02-26T04:52:12;2.90;;;2.15;;
82632;SDS011;72302;51.444;3.582;2024-02-26T04:54:38;3.40;;;1.17;;
82632;SDS011;72302;51.444;3.582;2024-02-26T04:57:03;4.03;;;2.35;;
82632;SDS011;72302;51.444;3.582;2024-02-26T04:59:28;3.75;;;2.20;;
82632;SDS011;72302;51.444;3.582;2024-02-26T05:01:53;5.43;;;2.93;;
82632;SDS011;72302;51.444;3.582;2024-02-26T05:04:19;2.33;;;1.07;;
82632;SDS011;72302;51.444;3.582;2024-02-26T05:06:44;4.23;;;1.80;;
82632;SDS011;72302;51.444;3.582;2024-02-26T05:09:09;4.32;;;2.47;;
82632;SDS011;72302;51.444;3.582;2024-02-26T05:11:35;5.27;;;2.10;;
82632;SDS011;72302;51.444;3.582;2024-02-26T05:14:00;4.00;;;2.22;;
82632;SDS011;72302;51.444;3.582;2024-02-26T05:16:26;2.50;;;1.20;;
82632;SDS011;72302;51.444;3.582;2024-02-26T05:18:52;7.68;;;2.10;;
82632;SDS011;72302;51.444;3.582;2024-02-26T05:21:17;3.33;;;1.70;;
82632;SDS011;72302;51.444;3.582;2024-02-26T05:23:42;2.77;;;1.40;;
82632;SDS011;72302;51.444;3.582;2024-02-26T05:26:08;4.00;;;2.55;;
82632;SDS011;72302;51.444;3.582;2024-02-26T05:28:34;4.32;;;2.28;;
82632;SDS011;72302;51.444;3.582;2024-02-26T05:30:59;4.07;;;2.28;;
82632;SDS011;72302;51.444;3.582;2024-02-26T05:33:25;2.83;;;1.58;;
82632;SDS011;72302;51.444;3.582;2024-02-26T05:35:50;3.43;;;1.77;;
82632;SDS011;72302;51.444;3.582;2024-02-26T05:38:15;4.43;;;2.93;;
82632;SDS011;72302;51.444;3.582;2024-02-26T05:40:41;3.50;;;1.93;;
82632;SDS011;72302;51.444;3.582;2024-02-26T05:43:06;4.25;;;2.03;;
82632;SDS011;72302;51.444;3.582;2024-02-26T05:45:31;3.73;;;1.37;;
82632;SDS011;72302;51.444;3.582;2024-02-26T05:47:57;3.45;;;1.30;;
82632;SDS011;72302;51.444;3.582;2024-02-26T05:50:23;4.57;;;2.13;;
82632;SDS011;72302;51.444;3.582;2024-02-26T05:52:48;6.83;;;2.10;;
82632;SDS011;72302;51.444;3.582;2024-02-26T05:55:13;6.72;;;1.58;;
82632;SDS011;72302;51.444;3.582;2024-02-26T05:57:38;4.72;;;2.35;;
82632;SDS011;72302;51.444;3.582;2024-02-26T06:00:04;4.17;;;1.90;;
82632;SDS011;72302;51.444;3.582;2024-02-26T06:02:30;1.58;;;0.85;;
82632;SDS011;72302;51.444;3.582;2024-02-26T06:04:55;3.28;;;1.67;;
82632;SDS011;72302;51.444;3.582;2024-02-26T06:07:20;3.25;;;1.42;;
82632;SDS011;72302;51.444;3.582;2024-02-26T06:09:45;4.03;;;1.97;;
82632;SDS011;72302;51.444;3.582;2024-02-26T06:12:11;3.63;;;1.13;;
82632;SDS011;72302;51.444;3.582;2024-02-26T06:14:36;4.33;;;1.67;;
82632;SDS011;72302;51.444;3.582;2024-02-26T06:17:01;2.20;;;1.30;;
82632;SDS011;72302;51.444;3.582;2024-02-26T06:19:26;4.53;;;1.80;;
82632;SDS011;72302;51.444;3.582;2024-02-26T06:21:51;4.57;;;2.07;;
82632;SDS011;72302;51.444;3.582;2024-02-26T06:24:17;4.55;;;2.08;;
82632;SDS011;72302;51.444;3.582;2024-02-26T06:26:42;3.93;;;2.03;;
82632;SDS011;72302;51.444;3.582;2024-02-26T06:29:07;4.53;;;2.20;;
82632;SDS011;72302;51.444;3.582;2024-02-26T06:31:33;3.53;;;1.93;;
82632;SDS011;72302;51.444;3.582;2024-02-26T06:33:58;2.42;;;1.17;;
82632;SDS011;72302;51.444;3.582;2024-02-26T06:36:23;4.63;;;1.83;;
82632;SDS011;72302;51.444;3.582;2024-02-26T06:38:48;4.50;;;1.75;;
82632;SDS011;72302;51.444;3.582;2024-02-26T06:41:14;3.08;;;1.13;;
82632;SDS011;72302;51.444;3.582;2024-02-26T06:43:39;5.17;;;1.40;;
82632;SDS011;72302;51.444;3.582;2024-02-26T06:46:05;3.50;;;1.57;;
82632;SDS011;72302;51.444;3.582;2024-02-26T06:48:30;3.90;;;1.50;;
82632;SDS011;72302;51.444;3.582;2024-02-26T06:50:56;2.20;;;0.97;;
82632;SDS011;72302;51.444;3.582;2024-02-26T06:53:21;2.40;;;1.13;;
82632;SDS011;72302;51.444;3.582;2024-02-26T06:55:46;3.83;;;1.70;;
82632;SDS011;72302;51.444;3.582;2024-02-26T06:58:11;1.98;;;0.90;;
82632;SDS011;72302;51.444;3.582;2024-02-26T07:00:36;2.60;;;1.10;;
82632;SDS011;72302;51.444;3.582;2024-02-26T07:03:02;2.80;;;1.30;;
82632;SDS011;72302;51.444;3.582;2024-02-26T07:05:27;3.95;;;1.70;;
82632;SDS011;72302;51.444;3.582;2024-02-26T07:07:52;3.40;;;1.73;;
82632;SDS011;72302;51.444;3.582;2024-02-26T07:10:19;3.47;;;1.73;;
82632;SDS011;72302;51.444;3.582;2024-02-26T07:12:44;4.37;;;1.50;;
82632;SDS011;72302;51.444;3.582;2024-02-26T07:15:09;3.15;;;1.83;;
82632;SDS011;72302;51.444;3.582;2024-02-26T07:17:35;2.88;;;0.90;;
82632;SDS011;72302;51.444;3.582;2024-02-26T07:20:01;2.75;;;1.02;;
82632;SDS011;72302;51.444;3.582;2024-02-26T07:22:29;3.90;;;2.00;;
82632;SDS011;72302;51.444;3.582;2024-02-26T07:24:54;4.83;;;1.20;;
82632;SDS011;72302;51.444;3.582;2024-02-26T07:27:19;3.67;;;1.90;;
82632;SDS011;72302;51.444;3.582;2024-02-26T07:29:46;4.50;;;2.05;;
82632;SDS011;72302;51.444;3.582;2024-02-26T07:32:11;2.78;;;1.48;;
82632;SDS011;72302;51.444;3.582;2024-02-26T07:34:36;4.60;;;2.28;;
82632;SDS011;72302;51.444;3.582;2024-02-26T07:37:04;3.20;;;1.30;;
82632;SDS011;72302;51.444;3.582;2024-02-26T07:39:29;4.53;;;1.77;;
82632;SDS011;72302;51.444;3.582;2024-02-26T07:41:54;4.70;;;1.97;;
82632;SDS011;72302;51.444;3.582;2024-02-26T07:44:19;3.57;;;2.03;;
82632;SDS011;72302;51.444;3.582;2024-02-26T07:46:44;6.53;;;2.73;;
82632;SDS011;72302;51.444;3.582;2024-02-26T07:49:10;4.60;;;2.22;;
82632;SDS011;72302;51.444;3.582;2024-02-26T07:51:35;2.57;;;1.20;;
82632;SDS011;72302;51.444;3.582;2024-02-26T07:54:00;4.10;;;2.00;;
82632;SDS011;72302;51.444;3.582;2024-02-26T07:56:26;4.82;;;1.85;;
82632;SDS011;72302;51.444;3.582;2024-02-26T07:58:51;4.10;;;2.25;;
82632;SDS011;72302;51.444;3.582;2024-02-26T08:01:16;3.72;;;1.90;;
82632;SDS011;72302;51.444;3.582;2024-02-26T08:03:41;4.23;;;2.10;;
82632;SDS011;72302;51.444;3.582;2024-02-26T08:06:07;5.33;;;3.10;;
82632;SDS011;72302;51.444;3.582;2024-02-26T08:08:33;6.18;;;3.00;;
82632;SDS011;72302;51.444;3.582;2024-02-26T08:10:58;4.40;;;2.20;;
82632;SDS011;72302;51.444;3.582;2024-02-26T08:13:23;6.47;;;3.40;;
82632;SDS011;72302;51.444;3.582;2024-02-26T08:15:49;5.65;;;3.28;;
82632;SDS011;72302;51.444;3.582;2024-02-26T08:18:14;5.30;;;2.90;;
82632;SDS011;72302;51.444;3.582;2024-02-26T08:20:40;6.72;;;3.47;;
82632;SDS011;72302;51.444;3.582;2024-02-26T08:23:05;7.13;;;2.72;;
82632;SDS011;72302;51.444;3.582;2024-02-26T08:25:30;4.25;;;1.90;;
82632;SDS011;72302;51.444;3.582;2024-02-26T08:27:56;6.90;;;4.03;;
82632;SDS011;72302;51.444;3.582;2024-02-26T08:30:21;5.40;;;2.50;;
82632;SDS011;72302;51.444;3.582;2024-02-26T08:32:47;7.78;;;3.92;;
82632;SDS011;72302;51.444;3.582;2024-02-26T08:35:12;6.88;;;3.20;;
82632;SDS011;72302;51.444;3.582;2024-02-26T08:37:38;5.32;;;2.97;;
82632;SDS011;72302;51.444;3.582;2024-02-26T08:40:03;7.27;;;4.23;;
82632;SDS011;72302;51.444;3.582;2024-02-26T08:42:29;6.85;;;3.72;;
82632;SDS011;72302;51.444;3.582;2024-02-26T08:44:54;5.25;;;2.70;;
82632;SDS011;72302;51.444;3.582;2024-02-26T08:47:19;9.23;;;4.17;;
82632;SDS011;72302;51.444;3.582;2024-02-26T08:49:45;9.37;;;5.20;;
82632;SDS011;72302;51.444;3.582;2024-02-26T08:52:10;12.27;;;6.78;;
82632;SDS011;72302;51.444;3.582;2024-02-26T08:54:35;11.88;;;5.75;;
82632;SDS011;72302;51.444;3.582;2024-02-26T08:57:01;10.27;;;6.53;;
82632;SDS011;72302;51.444;3.582;2024-02-26T08:59:26;8.30;;;5.03;;
82632;SDS011;72302;51.444;3.582;2024-02-26T09:01:51;11.20;;;6.90;;
82632;SDS011;72302;51.444;3.582;2024-02-26T09:04:16;10.37;;;6.47;;
82632;SDS011;72302;51.444;3.582;2024-02-26T09:06:41;6.60;;;3.70;;
82632;SDS011;72302;51.444;3.582;2024-02-26T09:09:07;8.80;;;4.40;;
82632;SDS011;72302;51.444;3.582;2024-02-26T09:11:33;9.43;;;4.72;;
82632;SDS011;72302;51.444;3.582;2024-02-26T09:13:58;7.85;;;3.95;;
82632;SDS011;72302;51.444;3.582;2024-02-26T09:16:24;11.90;;;9.00;;
82632;SDS011;72302;51.444;3.582;2024-02-26T09:18:49;9.85;;;6.00;;
82632;SDS011;72302;51.444;3.582;2024-02-26T09:21:14;7.25;;;5.18;;
82632;SDS011;72302;51.444;3.582;2024-02-26T09:23:41;9.73;;;5.57;;
82632;SDS011;72302;51.444;3.582;2024-02-26T09:26:06;10.43;;;6.53;;
82632;SDS011;72302;51.444;3.582;2024-02-26T09:28:31;8.93;;;5.43;;
82632;SDS011;72302;51.444;3.582;2024-02-26T09:31:02;10.45;;;7.60;;
82632;SDS011;72302;51.444;3.582;2024-02-26T09:33:27;6.45;;;4.43;;
82632;SDS011;72302;51.444;3.582;2024-02-26T09:35:52;7.83;;;4.33;;
82632;SDS011;72302;51.444;3.582;2024-02-26T09:38:17;8.03;;;6.17;;
82632;SDS011;72302;51.444;3.582;2024-02-26T09:40:43;6.57;;;4.33;;
82632;SDS011;72302;51.444;3.582;2024-02-26T09:43:08;9.23;;;5.80;;
82632;SDS011;72302;51.444;3.582;2024-02-26T09:45:35;8.45;;;5.25;;
82632;SDS011;72302;51.444;3.582;2024-02-26T09:48:00;8.82;;;5.22;;
82632;SDS011;72302;51.444;3.582;2024-02-26T09:50:27;7.32;;;3.60;;
82632;SDS011;72302;51.444;3.582;2024-02-26T09:52:52;7.13;;;5.43;;
82632;SDS011;72302;51.444;3.582;2024-02-26T09:55:19;6.15;;;3.88;;
82632;SDS011;72302;51.444;3.582;2024-02-26T09:57:45;6.68;;;4.63;;
82632;SDS011;72302;51.444;3.582;2024-02-26T10:00:11;6.13;;;3.67;;
82632;SDS011;72302;51.444;3.582;2024-02-26T10:02:39;7.15;;;4.38;;
82632;SDS011;72302;51.444;3.582;2024-02-26T10:05:05;3.67;;;2.20;;
82632;SDS011;72302;51.444;3.582;2024-02-26T10:07:32;4.57;;;2.92;;
82632;SDS011;72302;51.444;3.582;2024-02-26T10:09:57;5.15;;;3.38;;
82632;SDS011;72302;51.444;3.582;2024-02-26T10:12:23;5.40;;;3.67;;
82632;SDS011;72302;51.444;3.582;2024-02-26T10:14:48;5.43;;;3.22;;
82632;SDS011;72302;51.444;3.582;2024-02-26T10:17:14;7.37;;;3.30;;
82632;SDS011;72302;51.444;3.582;2024-02-26T10:19:39;4.93;;;3.22;;
82632;SDS011;72302;51.444;3.582;2024-02-26T10:22:05;5.50;;;3.22;;
82632;SDS011;72302;51.444;3.582;2024-02-26T10:24:30;6.05;;;3.85;;
82632;SDS011;72302;51.444;3.582;2024-02-26T10:26:56;4.05;;;2.83;;
82632;SDS011;72302;51.444;3.582;2024-02-26T10:29:23;6.25;;;3.28;;
82632;SDS011;72302;51.444;3.582;2024-02-26T10:31:49;3.08;;;1.67;;
82632;SDS011;72302;51.444;3.582;2024-02-26T10:34:15;5.55;;;3.25;;
82632;SDS011;72302;51.444;3.582;2024-02-26T10:36:41;5.95;;;2.40;;
82632;SDS011;72302;51.444;3.582;2024-02-26T10:39:06;4.05;;;2.58;;
82632;SDS011;72302;51.444;3.582;2024-02-26T10:41:34;2.53;;;0.95;;
82632;SDS011;72302;51.444;3.582;2024-02-26T10:44:00;1.23;;;0.45;;
82632;SDS011;72302;51.444;3.582;2024-02-26T10:46:25;4.10;;;2.25;;
82632;SDS011;72302;51.444;3.582;2024-02-26T10:48:50;3.50;;;1.92;;
82632;SDS011;72302;51.444;3.582;2024-02-26T10:51:20;3.30;;;2.20;;
82632;SDS011;72302;51.444;3.582;2024-02-26T10:53:47;4.53;;;2.10;;
82632;SDS011;72302;51.444;3.582;2024-02-26T10:56:12;3.50;;;1.67;;
82632;SDS011;72302;51.444;3.582;2024-02-26T10:58:39;3.97;;;1.63;;
82632;SDS011;72302;51.444;3.582;2024-02-26T11:01:04;3.20;;;1.30;;
82632;SDS011;72302;51.444;3.582;2024-02-26T11:03:30;3.85;;;2.03;;
82632;SDS011;72302;51.444;3.582;2024-02-26T11:05:57;5.35;;;2.53;;
82632;SDS011;72302;51.444;3.582;2024-02-26T11:08:23;2.80;;;1.25;;
82632;SDS011;72302;51.444;3.582;2024-02-26T11:10:50;2.58;;;1.35;;
82632;SDS011;72302;51.444;3.582;2024-02-26T11:13:18;3.70;;;1.55;;
82632;SDS011;72302;51.444;3.582;2024-02-26T11:15:43;3.42;;;1.20;;
82632;SDS011;72302;51.444;3.582;2024-02-26T11:18:09;2.65;;;1.35;;
82632;SDS011;72302;51.444;3.582;2024-02-26T11:20:38;3.22;;;1.73;;
82632;SDS011;72302;51.444;3.582;2024-02-26T11:23:04;3.80;;;1.35;;
82632;SDS011;72302;51.444;3.582;2024-02-26T11:25:29;3.00;;;1.60;;
82632;SDS011;72302;51.444;3.582;2024-02-26T11:27:55;2.25;;;0.95;;
82632;SDS011;72302;51.444;3.582;2024-02-26T11:30:23;3.40;;;1.48;;
82632;SDS011;72302;51.444;3.582;2024-02-26T11:32:50;3.58;;;1.45;;
82632;SDS011;72302;51.444;3.582;2024-02-26T11:35:17;1.65;;;0.60;;
82632;SDS011;72302;51.444;3.582;2024-02-26T11:37:56;3.22;;;1.58;;
82632;SDS011;72302;51.444;3.582;2024-02-26T11:40:24;2.72;;;1.05;;
82632;SDS011;72302;51.444;3.582;2024-02-26T11:42:50;2.65;;;1.33;;
82632;SDS011;72302;51.444;3.582;2024-02-26T11:48:02;4.80;;;1.88;;
82632;SDS011;72302;51.444;3.582;2024-02-26T11:50:38;2.60;;;1.15;;
82632;SDS011;72302;51.444;3.582;2024-02-26T11:53:23;1.88;;;0.90;;
82632;SDS011;72302;51.444;3.582;2024-02-26T11:58:32;1.70;;;0.65;;
82632;SDS011;72302;51.444;3.582;2024-02-26T12:00:57;2.13;;;0.63;;
82632;SDS011;72302;51.444;3.582;2024-02-26T12:03:22;1.43;;;0.57;;
82632;SDS011;72302;51.444;3.582;2024-02-26T12:05:48;2.47;;;0.63;;
82632;SDS011;72302;51.444;3.582;2024-02-26T12:08:13;1.65;;;0.85;;
82632;SDS011;72302;51.444;3.582;2024-02-26T12:10:42;3.55;;;1.08;;
82632;SDS011;72302;51.444;3.582;2024-02-26T12:13:12;2.00;;;0.88;;
82632;SDS011;72302;51.444;3.582;2024-02-26T12:15:39;3.65;;;1.20;;
82632;SDS011;72302;51.444;3.582;2024-02-26T12:18:05;1.27;;;0.43;;
82632;SDS011;72302;51.444;3.582;2024-02-26T12:20:31;3.30;;;1.20;;
82632;SDS011;72302;51.444;3.582;2024-02-26T12:22:57;2.65;;;1.10;;
82632;SDS011;72302;51.444;3.582;2024-02-26T12:25:25;2.70;;;1.10;;
82632;SDS011;72302;51.444;3.582;2024-02-26T12:27:51;1.17;;;0.57;;
82632;SDS011;72302;51.444;3.582;2024-02-26T12:30:17;2.72;;;1.38;;
82632;SDS011;72302;51.444;3.582;2024-02-26T12:32:44;3.15;;;1.15;;
82632;SDS011;72302;51.444;3.582;2024-02-26T12:35:09;2.13;;;1.05;;
82632;SDS011;72302;51.444;3.582;2024-02-26T12:37:34;1.60;;;0.60;;
82632;SDS011;72302;51.444;3.582;2024-02-26T12:40:02;1.75;;;0.80;;
82632;SDS011;72302;51.444;3.582;2024-02-26T12:42:28;3.08;;;1.35;;
82632;SDS011;72302;51.444;3.582;2024-02-26T12:44:54;3.25;;;1.30;;
82632;SDS011;72302;51.444;3.582;2024-02-26T12:47:19;3.33;;;1.20;;
82632;SDS011;72302;51.444;3.582;2024-02-26T12:49:46;2.33;;;1.20;;
82632;SDS011;72302;51.444;3.582;2024-02-26T12:52:12;2.70;;;1.08;;
82632;SDS011;72302;51.444;3.582;2024-02-26T12:54:38;1.40;;;0.52;;
82632;SDS011;72302;51.444;3.582;2024-02-26T12:57:04;2.67;;;1.23;;
82632;SDS011;72302;51.444;3.582;2024-02-26T12:59:31;3.28;;;1.45;;
82632;SDS011;72302;51.444;3.582;2024-02-26T13:01:56;3.75;;;1.45;;
82632;SDS011;72302;51.444;3.582;2024-02-26T13:04:22;2.92;;;0.80;;
82632;SDS011;72302;51.444;3.582;2024-02-26T13:06:47;1.90;;;0.90;;
82632;SDS011;72302;51.444;3.582;2024-02-26T13:09:13;3.30;;;1.13;;
82632;SDS011;72302;51.444;3.582;2024-02-26T13:11:41;4.50;;;1.70;;
82632;SDS011;72302;51.444;3.582;2024-02-26T13:14:07;2.08;;;0.95;;
82632;SDS011;72302;51.444;3.582;2024-02-26T13:16:32;1.07;;;0.57;;
82632;SDS011;72302;51.444;3.582;2024-02-26T13:19:07;3.45;;;1.30;;
82632;SDS011;72302;51.444;3.582;2024-02-26T13:21:33;4.15;;;1.52;;
82632;SDS011;72302;51.444;3.582;2024-02-26T13:23:58;2.00;;;0.90;;
82632;SDS011;72302;51.444;3.582;2024-02-26T13:26:23;1.52;;;0.70;;
82632;SDS011;72302;51.444;3.582;2024-02-26T13:28:59;3.10;;;1.50;;
82632;SDS011;72302;51.444;3.582;2024-02-26T13:31:24;2.80;;;1.13;;
82632;SDS011;72302;51.444;3.582;2024-02-26T13:33:49;3.10;;;1.25;;
82632;SDS011;72302;51.444;3.582;2024-02-26T13:36:15;6.40;;;1.80;;
82632;SDS011;72302;51.444;3.582;2024-02-26T13:38:40;2.25;;;0.70;;
82632;SDS011;72302;51.444;3.582;2024-02-26T13:41:16;3.72;;;1.67;;
82632;SDS011;72302;51.444;3.582;2024-02-26T13:43:41;3.20;;;1.48;;
82632;SDS011;72302;51.444;3.582;2024-02-26T13:46:07;3.67;;;1.50;;
82632;SDS011;72302;51.444;3.582;2024-02-26T13:48:33;1.85;;;0.82;;
82632;SDS011;72302;51.444;3.582;2024-02-26T13:50:58;3.97;;;2.33;;
82632;SDS011;72302;51.444;3.582;2024-02-26T13:53:23;3.47;;;1.77;;
82632;SDS011;72302;51.444;3.582;2024-02-26T13:55:49;4.18;;;1.00;;
82632;SDS011;72302;51.444;3.582;2024-02-26T13:58:14;2.70;;;1.50;;
82632;SDS011;72302;51.444;3.582;2024-02-26T14:00:39;3.42;;;1.70;;
82632;SDS011;72302;51.444;3.582;2024-02-26T14:03:06;4.20;;;2.05;;
82632;SDS011;72302;51.444;3.582;2024-02-26T14:05:31;3.70;;;1.30;;
82632;SDS011;72302;51.444;3.582;2024-02-26T14:07:56;5.73;;;2.47;;
82632;SDS011;72302;51.444;3.582;2024-02-26T14:10:22;2.97;;;1.45;;
82632;SDS011;72302;51.444;3.582;2024-02-26T14:12:47;5.03;;;2.45;;
82632;SDS011;72302;51.444;3.582;2024-02-26T14:15:12;3.47;;;1.50;;
82632;SDS011;72302;51.444;3.582;2024-02-26T14:17:38;4.25;;;1.48;;
82632;SDS011;72302;51.444;3.582;2024-02-26T14:20:03;3.37;;;1.77;;
82632;SDS011;72302;51.444;3.582;2024-02-26T14:22:28;3.97;;;1.38;;
82632;SDS011;72302;51.444;3.582;2024-02-26T14:24:55;4.28;;;2.22;;
82632;SDS011;72302;51.444;3.582;2024-02-26T14:27:20;2.35;;;0.63;;
82632;SDS011;72302;51.444;3.582;2024-02-26T14:29:47;1.70;;;1.05;;
82632;SDS011;72302;51.444;3.582;2024-02-26T14:32:13;2.65;;;1.30;;
82632;SDS011;72302;51.444;3.582;2024-02-26T14:34:38;2.70;;;1.65;;
82632;SDS011;72302;51.444;3.582;2024-02-26T14:37:03;3.72;;;1.30;;
82632;SDS011;72302;51.444;3.582;2024-02-26T14:39:29;4.18;;;1.70;;
82632;SDS011;72302;51.444;3.582;2024-02-26T14:41:55;2.85;;;1.48;;
82632;SDS011;72302;51.444;3.582;2024-02-26T14:44:20;5.00;;;2.03;;